createdAt,value
2017-12-15T00:00:17.360Z,8.60
2017-12-15T00:02:45.476Z,8.80
2017-12-15T00:05:13.634Z,9.00
2017-12-15T00:07:41.758Z,10.23
2017-12-15T00:10:09.911Z,10.30
2017-12-15T00:12:38.033Z,8.20
2017-12-15T00:15:06.184Z,10.27
2017-12-15T00:17:34.306Z,11.77
2017-12-15T00:20:02.460Z,12.32
2017-12-15T00:22:30.581Z,10.05
2017-12-15T00:24:58.743Z,13.15
2017-12-15T00:27:26.865Z,10.45
2017-12-15T00:29:55.016Z,9.60
2017-12-15T00:32:23.144Z,10.90
2017-12-15T00:34:51.276Z,10.88
2017-12-15T00:37:19.432Z,10.07
2017-12-15T00:39:48.326Z,10.93
2017-12-15T00:42:16.482Z,10.02
2017-12-15T00:44:45.378Z,13.23
2017-12-15T00:47:13.533Z,10.82
2017-12-15T00:49:41.659Z,10.25
2017-12-15T00:52:09.808Z,10.68
2017-12-15T00:54:37.934Z,10.18
2017-12-15T00:57:06.081Z,10.20
2017-12-15T00:59:34.205Z,9.85
2017-12-15T01:02:02.352Z,11.18
2017-12-15T01:04:30.476Z,14.18
2017-12-15T01:06:58.635Z,12.55
2017-12-15T01:09:26.761Z,14.52
2017-12-15T01:11:54.917Z,14.02
2017-12-15T01:14:23.049Z,12.68
2017-12-15T01:16:51.219Z,14.00
2017-12-15T01:19:19.337Z,10.80
2017-12-15T01:21:47.473Z,14.00
2017-12-15T01:24:16.398Z,13.43
2017-12-15T01:26:44.528Z,12.60
2017-12-15T01:29:12.682Z,14.38
2017-12-15T01:31:40.819Z,14.32
2017-12-15T01:34:08.982Z,18.30
2017-12-15T01:36:37.115Z,16.40
2017-12-15T01:39:05.273Z,15.57
2017-12-15T01:41:33.399Z,15.07
2017-12-15T01:44:01.562Z,16.95
2017-12-15T01:46:29.689Z,14.82
2017-12-15T01:48:57.841Z,17.50
2017-12-15T01:51:25.973Z,16.48
2017-12-15T01:53:54.133Z,15.18
2017-12-15T01:56:22.274Z,16.12
2017-12-15T01:58:50.445Z,15.73
2017-12-15T02:01:18.578Z,16.00
2017-12-15T02:03:46.740Z,16.00
2017-12-15T02:06:14.874Z,15.88
2017-12-15T02:08:43.045Z,19.55
2017-12-15T02:11:11.169Z,14.15
2017-12-15T02:13:39.301Z,16.50
2017-12-15T02:16:07.468Z,15.88
2017-12-15T02:18:35.607Z,19.30
2017-12-15T02:21:03.759Z,14.25
2017-12-15T02:23:31.889Z,16.60
2017-12-15T02:26:00.058Z,16.50
2017-12-15T02:28:28.187Z,20.35
2017-12-15T02:30:57.110Z,17.67
2017-12-15T02:33:25.247Z,25.75
2017-12-15T02:35:54.188Z,17.17
2017-12-15T02:38:22.312Z,15.80
2017-12-15T02:40:51.224Z,17.15
2017-12-15T02:43:19.358Z,17.08
2017-12-15T02:45:47.518Z,20.40
2017-12-15T02:48:15.660Z,17.70
2017-12-15T02:50:43.819Z,16.12
2017-12-15T02:53:11.957Z,17.52
2017-12-15T02:55:40.881Z,18.05
2017-12-15T02:58:09.019Z,15.90
2017-12-15T03:00:37.938Z,21.25
2017-12-15T03:03:06.070Z,11.80
2017-12-15T03:05:34.321Z,14.60
2017-12-15T03:08:02.453Z,15.93
2017-12-15T03:10:30.581Z,18.15
2017-12-15T03:12:58.750Z,15.63
2017-12-15T03:15:26.877Z,17.90
2017-12-15T03:17:55.043Z,17.65
2017-12-15T03:20:23.189Z,14.98
2017-12-15T03:22:51.343Z,17.95
2017-12-15T03:25:19.474Z,13.57
2017-12-15T03:27:47.637Z,22.25
2017-12-15T03:30:15.774Z,14.85
2017-12-15T03:32:43.927Z,16.27
2017-12-15T03:35:12.057Z,17.30
2017-12-15T03:37:40.217Z,16.25
2017-12-15T03:40:08.357Z,19.48
2017-12-15T03:42:36.513Z,13.20
2017-12-15T03:45:04.647Z,17.77
2017-12-15T03:47:32.808Z,16.60
2017-12-15T03:50:00.942Z,17.48
2017-12-15T03:52:29.104Z,14.40
2017-12-15T03:54:57.242Z,15.45
2017-12-15T03:57:25.393Z,14.85
2017-12-15T03:59:53.521Z,14.68
2017-12-15T04:02:21.681Z,12.15
2017-12-15T04:04:49.832Z,20.02
2017-12-15T04:07:17.984Z,14.30
2017-12-15T04:09:46.120Z,11.20
2017-12-15T04:12:14.278Z,15.05
2017-12-15T04:14:42.401Z,16.20
2017-12-15T04:17:10.565Z,15.02
2017-12-15T04:19:38.702Z,15.02
2017-12-15T04:22:06.857Z,14.23
2017-12-15T04:24:34.987Z,9.35
2017-12-15T04:27:03.152Z,10.23
2017-12-15T04:29:31.286Z,12.57
2017-12-15T04:31:59.416Z,15.07
2017-12-15T04:34:27.570Z,11.63
2017-12-15T04:36:55.708Z,15.00
2017-12-15T04:39:23.862Z,11.65
2017-12-15T04:41:51.986Z,10.95
2017-12-15T04:44:20.149Z,12.37
2017-12-15T04:46:48.281Z,12.80
2017-12-15T04:49:16.438Z,13.52
2017-12-15T04:51:44.566Z,15.48
2017-12-15T04:54:12.725Z,15.27
2017-12-15T04:56:40.860Z,15.05
2017-12-15T04:59:09.013Z,14.85
2017-12-15T05:01:37.142Z,13.88
2017-12-15T05:04:05.301Z,16.55
2017-12-15T05:06:33.427Z,17.70
2017-12-15T05:09:01.586Z,17.62
2017-12-15T05:11:29.745Z,15.52
2017-12-15T05:13:57.907Z,13.88
2017-12-15T05:16:26.036Z,15.32
2017-12-15T05:18:54.207Z,19.90
2017-12-15T05:21:22.338Z,14.07
2017-12-15T05:23:50.489Z,13.05
2017-12-15T05:26:18.633Z,14.13
2017-12-15T05:28:46.794Z,15.85
2017-12-15T05:31:14.922Z,17.25
2017-12-15T05:33:43.078Z,13.80
2017-12-15T05:36:11.209Z,12.07
2017-12-15T05:38:39.397Z,12.85
2017-12-15T05:41:07.525Z,14.60
2017-12-15T05:43:35.656Z,18.65
2017-12-15T05:46:04.581Z,20.95
2017-12-15T05:48:32.718Z,15.88
2017-12-15T05:51:01.638Z,12.07
2017-12-15T05:53:29.768Z,15.25
2017-12-15T05:55:57.932Z,20.00
2017-12-15T05:58:26.065Z,13.57
2017-12-15T06:00:54.214Z,15.70
2017-12-15T06:03:22.347Z,15.30
2017-12-15T06:05:50.511Z,14.52
2017-12-15T06:08:18.650Z,14.00
2017-12-15T06:10:46.804Z,13.07
2017-12-15T06:13:14.938Z,16.23
2017-12-15T06:15:43.102Z,16.37
2017-12-15T06:18:11.231Z,17.92
2017-12-15T06:20:39.385Z,16.00
2017-12-15T06:23:07.515Z,13.10
2017-12-15T06:25:35.673Z,13.68
2017-12-15T06:28:03.810Z,12.60
2017-12-15T06:30:31.947Z,16.50
2017-12-15T06:33:00.117Z,19.02
2017-12-15T06:35:28.238Z,13.98
2017-12-15T06:37:57.159Z,14.00
2017-12-15T06:40:25.292Z,16.70
2017-12-15T06:42:54.214Z,15.45
2017-12-15T06:45:22.349Z,17.15
2017-12-15T06:47:50.509Z,13.23
2017-12-15T06:50:18.649Z,13.02
2017-12-15T06:52:46.802Z,14.93
2017-12-15T06:55:14.938Z,16.33
2017-12-15T06:57:43.097Z,16.98
2017-12-15T07:00:11.232Z,16.75
2017-12-15T07:02:39.389Z,17.87
2017-12-15T07:05:07.531Z,19.83
2017-12-15T07:07:35.685Z,14.75
2017-12-15T07:10:03.836Z,14.20
2017-12-15T07:12:31.993Z,14.05
2017-12-15T07:15:00.125Z,19.30
2017-12-15T07:17:28.289Z,17.50
2017-12-15T07:19:56.417Z,21.00
2017-12-15T07:22:24.568Z,16.60
2017-12-15T07:24:52.702Z,19.90
2017-12-15T07:27:20.860Z,18.33
2017-12-15T07:29:48.994Z,23.27
2017-12-15T07:32:17.122Z,18.40
2017-12-15T07:34:45.281Z,21.55
2017-12-15T07:37:13.413Z,20.20
2017-12-15T07:39:41.585Z,20.70
2017-12-15T07:42:09.709Z,20.88
2017-12-15T07:44:37.871Z,25.12
2017-12-15T07:47:05.997Z,17.55
2017-12-15T07:49:34.921Z,17.52
2017-12-15T07:52:03.066Z,20.10
2017-12-15T07:54:31.987Z,16.42
2017-12-15T07:57:00.131Z,17.48
2017-12-15T07:59:28.314Z,20.25
2017-12-15T08:01:56.496Z,18.25
2017-12-15T08:04:24.637Z,15.63
2017-12-15T08:06:53.549Z,15.63
2017-12-15T08:09:21.714Z,19.33
2017-12-15T08:11:50.621Z,16.48
2017-12-15T08:14:18.774Z,17.20
2017-12-15T08:16:47.673Z,16.42
2017-12-15T08:19:15.835Z,13.75
2017-12-15T08:21:44.740Z,11.80
2017-12-15T08:24:12.885Z,15.52
2017-12-15T08:26:41.023Z,13.90
2017-12-15T08:29:09.193Z,16.70
2017-12-15T08:31:37.328Z,15.95
2017-12-15T08:34:05.480Z,18.23
2017-12-15T08:36:33.641Z,15.30
2017-12-15T08:39:01.770Z,14.63
2017-12-15T08:41:29.945Z,12.32
2017-12-15T08:43:58.123Z,16.75
2017-12-15T08:46:26.281Z,12.37
2017-12-15T08:48:54.418Z,12.93
2017-12-15T08:51:22.579Z,12.48
2017-12-15T08:53:50.730Z,12.82
2017-12-15T08:56:18.886Z,13.93
2017-12-15T08:58:47.020Z,11.63
2017-12-15T09:01:16.098Z,16.98
2017-12-15T09:03:44.255Z,13.52
2017-12-15T09:06:12.409Z,12.50
2017-12-15T09:08:40.540Z,11.43
2017-12-15T09:11:08.705Z,15.25
2017-12-15T09:13:36.841Z,13.75
2017-12-15T09:16:04.978Z,18.62
2017-12-15T09:21:07.565Z,11.98
2017-12-15T09:23:36.490Z,12.60
2017-12-15T09:26:04.621Z,13.95
2017-12-15T09:28:33.554Z,15.85
2017-12-15T09:31:01.692Z,16.37
2017-12-15T09:33:29.849Z,15.20
2017-12-15T09:35:57.988Z,12.63
2017-12-15T09:38:26.145Z,14.43
2017-12-15T09:40:54.284Z,12.90
2017-12-15T09:43:22.436Z,12.60
2017-12-15T09:45:50.686Z,10.77
2017-12-15T09:48:18.834Z,12.10
2017-12-15T09:50:46.979Z,12.25
2017-12-15T09:53:15.133Z,15.18
2017-12-15T09:55:43.257Z,13.95
2017-12-15T09:58:11.613Z,17.92
2017-12-15T10:00:40.510Z,12.70
2017-12-15T10:03:08.665Z,15.45
2017-12-15T10:05:37.564Z,10.82
2017-12-15T10:08:05.718Z,13.07
2017-12-15T10:10:33.850Z,13.00
2017-12-15T10:13:01.982Z,13.90
2017-12-15T10:15:30.128Z,13.60
2017-12-15T10:17:58.258Z,11.98
2017-12-15T10:20:26.409Z,11.25
2017-12-15T10:22:54.558Z,13.00
2017-12-15T10:25:22.722Z,12.88
2017-12-15T10:27:50.854Z,11.68
2017-12-15T10:30:19.010Z,13.68
2017-12-15T10:32:47.136Z,13.93
2017-12-15T10:35:15.294Z,15.60
2017-12-15T10:37:43.418Z,11.85
2017-12-15T10:40:11.570Z,13.00
2017-12-15T10:42:39.703Z,12.43
2017-12-15T10:45:08.046Z,12.05
2017-12-15T10:47:36.936Z,14.02
2017-12-15T10:50:05.090Z,15.73
2017-12-15T10:52:33.215Z,12.40
2017-12-15T10:55:01.374Z,14.95
2017-12-15T10:57:29.508Z,13.70
2017-12-15T10:59:57.665Z,12.95
2017-12-15T11:02:25.795Z,13.52
2017-12-15T11:04:53.924Z,14.52
2017-12-15T11:07:22.081Z,12.18
2017-12-15T11:09:50.226Z,13.20
2017-12-15T11:12:18.382Z,13.25
2017-12-15T11:14:46.518Z,15.38
2017-12-15T11:17:14.669Z,11.93
2017-12-15T11:19:42.789Z,14.98
2017-12-15T11:22:10.945Z,14.63
2017-12-15T11:24:39.850Z,15.90
2017-12-15T11:27:08.070Z,17.65
2017-12-15T11:29:36.161Z,19.67
2017-12-15T11:32:04.331Z,19.27
2017-12-15T11:34:32.461Z,21.02
2017-12-15T11:37:00.615Z,17.40
2017-12-15T11:39:29.506Z,14.57
2017-12-15T11:41:57.660Z,20.65
2017-12-15T11:44:25.789Z,28.45
2017-12-15T11:46:53.967Z,16.10
2017-12-15T11:49:22.098Z,18.10
2017-12-15T11:51:50.242Z,21.05
2017-12-15T11:54:18.407Z,18.52
2017-12-15T11:56:46.544Z,19.33
2017-12-15T11:59:14.697Z,15.68
2017-12-15T12:01:42.847Z,15.10
2017-12-15T12:04:11.010Z,14.60
2017-12-15T12:06:39.137Z,13.40
2017-12-15T12:09:07.299Z,14.45
2017-12-15T12:11:35.421Z,19.83
2017-12-15T12:14:03.573Z,17.20
2017-12-15T12:16:31.705Z,19.73
2017-12-15T12:18:59.865Z,18.85
2017-12-15T12:21:28.005Z,17.58
2017-12-15T12:23:56.162Z,19.87
2017-12-15T12:26:24.288Z,14.35
2017-12-15T12:28:52.447Z,16.37
2017-12-15T12:31:20.578Z,15.57
2017-12-15T12:33:48.757Z,13.32
2017-12-15T12:36:16.884Z,15.90
2017-12-15T12:38:45.038Z,15.30
2017-12-15T12:41:13.209Z,13.43
2017-12-15T12:43:41.364Z,14.48
2017-12-15T12:46:09.506Z,18.98
2017-12-15T12:48:38.074Z,14.57
2017-12-15T12:51:06.969Z,15.43
2017-12-15T12:53:35.147Z,18.87
2017-12-15T12:56:03.277Z,12.90
2017-12-15T12:58:31.432Z,16.05
2017-12-15T13:00:59.563Z,14.68
2017-12-15T13:03:27.730Z,16.62
2017-12-15T13:05:56.643Z,16.83
2017-12-15T13:08:24.815Z,14.65
2017-12-15T13:10:52.953Z,14.13
2017-12-15T13:13:21.117Z,13.02
2017-12-15T13:15:49.247Z,11.10
2017-12-15T13:18:17.405Z,23.25
2017-12-15T13:20:45.544Z,16.95
2017-12-15T13:23:13.700Z,13.10
2017-12-15T13:25:41.832Z,11.10
2017-12-15T13:28:09.966Z,15.32
2017-12-15T13:30:38.122Z,15.90
2017-12-15T13:33:06.249Z,11.70
2017-12-15T13:35:34.418Z,15.05
2017-12-15T13:38:02.544Z,13.95
2017-12-15T13:40:30.718Z,17.23
2017-12-15T13:42:58.850Z,17.08
2017-12-15T13:45:27.030Z,19.75
2017-12-15T13:47:55.169Z,12.82
2017-12-15T13:50:24.685Z,12.45
2017-12-15T13:52:58.860Z,16.37
2017-12-15T13:55:27.054Z,14.15
2017-12-15T13:57:55.949Z,15.13
2017-12-15T14:00:24.141Z,17.60
2017-12-15T14:02:52.282Z,16.00
2017-12-15T14:05:20.446Z,20.55
2017-12-15T14:07:48.590Z,15.27
2017-12-15T14:10:16.759Z,17.15
2017-12-15T14:12:44.886Z,13.98
2017-12-15T14:15:13.085Z,13.43
2017-12-15T14:17:41.222Z,17.48
2017-12-15T14:20:09.468Z,19.12
2017-12-15T14:22:37.607Z,15.95
2017-12-15T14:25:05.859Z,13.65
2017-12-15T14:27:34.021Z,16.00
2017-12-15T14:30:02.154Z,13.82
2017-12-15T14:32:30.317Z,18.48
2017-12-15T14:34:58.469Z,15.93
2017-12-15T14:37:26.624Z,16.50
2017-12-15T14:39:54.758Z,16.62
2017-12-15T14:42:22.970Z,13.90
2017-12-15T14:44:51.125Z,16.30
2017-12-15T14:47:19.286Z,20.08
2017-12-15T14:49:47.473Z,15.20
2017-12-15T14:52:15.610Z,15.15
2017-12-15T14:54:43.830Z,16.70
2017-12-15T14:57:11.985Z,17.90
2017-12-15T14:59:40.124Z,17.23
2017-12-15T15:02:08.303Z,19.15
2017-12-15T15:04:36.464Z,16.62
2017-12-15T15:07:04.619Z,31.73
2017-12-15T15:09:32.757Z,16.25
2017-12-15T15:12:00.922Z,18.75
2017-12-15T15:14:29.065Z,18.02
2017-12-15T15:16:57.226Z,20.37
2017-12-15T15:19:26.237Z,21.45
2017-12-15T15:21:54.396Z,17.55
2017-12-15T15:24:22.527Z,19.15
2017-12-15T15:26:50.693Z,15.82
2017-12-15T15:29:18.829Z,19.05
2017-12-15T15:31:46.984Z,17.25
2017-12-15T15:34:15.129Z,22.92
2017-12-15T15:36:44.090Z,23.62
2017-12-15T15:39:12.217Z,20.45
2017-12-15T15:41:40.359Z,20.15
2017-12-15T15:44:08.666Z,17.42
2017-12-15T15:46:37.556Z,22.10
2017-12-15T15:49:05.726Z,20.90
2017-12-15T15:51:34.622Z,17.52
2017-12-15T15:54:02.798Z,25.80
2017-12-15T15:56:30.939Z,22.85
2017-12-15T15:58:59.124Z,22.62
2017-12-15T16:01:27.248Z,19.37
2017-12-15T16:03:55.410Z,23.85
2017-12-15T16:06:23.546Z,28.08
2017-12-15T16:08:51.708Z,27.75
2017-12-15T16:11:19.862Z,25.70
2017-12-15T16:13:48.050Z,21.87
2017-12-15T16:16:16.182Z,32.78
2017-12-15T16:18:44.359Z,24.20
2017-12-15T16:21:12.556Z,31.35
2017-12-15T16:23:40.717Z,24.92
2017-12-15T16:26:08.889Z,22.05
2017-12-15T16:28:37.097Z,27.52
2017-12-15T16:31:05.456Z,26.83
2017-12-15T16:33:33.808Z,23.33
2017-12-15T16:36:01.968Z,26.27
2017-12-15T16:38:30.142Z,30.55
2017-12-15T16:40:58.342Z,34.63
2017-12-15T16:43:26.590Z,30.25
2017-12-15T16:45:54.963Z,34.13
2017-12-15T16:48:23.165Z,32.67
2017-12-15T16:50:51.310Z,25.60
2017-12-15T16:53:19.481Z,30.35
2017-12-15T16:58:22.059Z,27.52
2017-12-15T17:00:50.235Z,28.35
2017-12-15T17:03:18.367Z,26.70
2017-12-15T17:05:46.537Z,25.37
2017-12-15T17:08:14.691Z,28.10
2017-12-15T17:10:42.882Z,26.87
2017-12-15T17:13:11.013Z,40.12
2017-12-15T17:15:39.171Z,33.05
2017-12-15T17:18:07.337Z,26.85
2017-12-15T17:20:35.501Z,31.60
2017-12-15T17:23:03.704Z,36.92
2017-12-15T17:25:31.858Z,44.88
2017-12-15T17:27:59.985Z,31.90
2017-12-15T17:30:28.174Z,31.27
2017-12-15T17:32:56.536Z,23.33
2017-12-15T17:35:24.688Z,25.55
2017-12-15T17:37:52.850Z,28.90
2017-12-15T17:40:21.806Z,30.27
2017-12-15T17:42:49.980Z,26.92
2017-12-15T17:45:18.580Z,26.02
2017-12-15T17:47:46.810Z,24.73
2017-12-15T17:50:15.153Z,25.20
2017-12-15T17:52:43.387Z,26.25
2017-12-15T17:55:11.788Z,27.48
2017-12-15T17:57:40.913Z,27.40
2017-12-15T18:00:10.252Z,25.62
2017-12-15T18:02:38.526Z,23.55
2017-12-15T18:05:06.768Z,23.38
2017-12-15T18:07:34.941Z,33.40
2017-12-15T18:10:03.834Z,25.58
2017-12-15T18:12:31.994Z,30.65
2017-12-15T18:15:00.901Z,26.00
2017-12-15T18:17:29.089Z,28.85
2017-12-15T18:19:57.428Z,27.80
2017-12-15T18:22:25.591Z,26.98
2017-12-15T18:24:53.727Z,26.62
2017-12-15T18:27:22.207Z,29.67
2017-12-15T18:29:50.918Z,28.65
2017-12-15T18:32:20.136Z,31.37
2017-12-15T18:34:48.660Z,31.58
2017-12-15T18:37:17.440Z,28.70
2017-12-15T18:39:46.174Z,30.92
2017-12-15T18:42:14.596Z,29.73
2017-12-15T18:44:42.847Z,33.15
2017-12-15T18:47:11.035Z,33.58
2017-12-15T18:49:39.174Z,25.60
2017-12-15T18:52:07.347Z,24.67
2017-12-15T18:54:35.483Z,32.65
2017-12-15T18:57:03.676Z,27.20
2017-12-15T18:59:31.806Z,28.30
2017-12-15T19:02:00.905Z,35.75
2017-12-15T19:04:29.086Z,31.23
2017-12-15T19:06:57.253Z,29.63
2017-12-15T19:09:26.153Z,28.40
2017-12-15T19:11:54.322Z,40.42
2017-12-15T19:14:23.232Z,31.23
2017-12-15T19:16:51.403Z,32.00
2017-12-15T19:19:19.686Z,30.85
2017-12-15T19:21:47.878Z,35.08
2017-12-15T19:24:16.022Z,28.42
2017-12-15T19:26:44.188Z,29.17
2017-12-15T19:29:12.318Z,30.27
2017-12-15T19:31:40.489Z,32.75
2017-12-15T19:34:08.670Z,30.85
2017-12-15T19:36:36.800Z,33.35
2017-12-15T19:39:04.980Z,30.52
2017-12-15T19:41:33.112Z,36.42
2017-12-15T19:44:09.337Z,34.67
2017-12-15T19:46:37.510Z,41.53
2017-12-15T19:49:05.690Z,31.92
2017-12-15T19:51:33.816Z,33.80
2017-12-15T19:54:02.076Z,35.72
2017-12-15T19:56:30.331Z,27.20
2017-12-15T19:58:58.619Z,33.00
2017-12-15T20:01:26.824Z,31.48
2017-12-15T20:03:55.011Z,35.90
2017-12-15T20:06:23.265Z,32.25
2017-12-15T20:08:52.208Z,35.72
2017-12-15T20:11:20.367Z,31.35
2017-12-15T20:13:48.522Z,32.88
2017-12-15T20:16:16.701Z,29.87
2017-12-15T20:18:44.921Z,27.42
2017-12-15T20:21:13.066Z,40.33
2017-12-15T20:23:41.272Z,35.00
2017-12-15T20:26:09.409Z,40.75
2017-12-15T20:28:37.575Z,35.65
2017-12-15T20:31:05.712Z,32.75
2017-12-15T20:33:33.874Z,33.38
2017-12-15T20:36:02.025Z,33.03
2017-12-15T20:38:30.174Z,32.05
2017-12-15T20:40:58.305Z,34.17
2017-12-15T20:43:26.579Z,32.38
2017-12-15T20:45:54.717Z,35.65
2017-12-15T20:48:22.892Z,36.17
2017-12-15T20:50:51.035Z,32.58
2017-12-15T20:53:19.390Z,35.17
2017-12-15T20:55:48.288Z,29.27
2017-12-15T20:58:16.520Z,30.65
2017-12-15T21:00:44.679Z,29.83
2017-12-15T21:03:12.875Z,33.17
2017-12-15T21:05:41.037Z,34.28
2017-12-15T21:08:09.164Z,27.92
2017-12-15T21:10:37.353Z,31.62
2017-12-15T21:13:05.491Z,38.22
2017-12-15T21:15:34.428Z,35.60
2017-12-15T21:18:02.563Z,26.12
2017-12-15T21:20:31.487Z,28.50
2017-12-15T21:22:59.625Z,30.85
2017-12-15T21:25:28.541Z,38.15
2017-12-15T21:27:56.678Z,34.42
2017-12-15T21:30:25.615Z,31.37
2017-12-15T21:32:53.755Z,36.40
2017-12-15T21:35:22.724Z,37.58
2017-12-15T21:37:50.853Z,33.00
2017-12-15T21:40:19.024Z,28.12
2017-12-15T21:42:47.271Z,31.62
2017-12-15T21:45:16.193Z,33.83
2017-12-15T21:47:44.325Z,40.65
2017-12-15T21:50:13.248Z,32.95
2017-12-15T21:52:41.385Z,34.58
2017-12-15T21:55:10.301Z,40.72
2017-12-15T21:57:38.429Z,34.30
2017-12-15T22:00:06.585Z,34.35
2017-12-15T22:02:34.719Z,34.60
2017-12-15T22:05:02.878Z,35.15
2017-12-15T22:07:31.015Z,32.20
2017-12-15T22:09:59.170Z,35.47
2017-12-15T22:12:27.305Z,39.50
2017-12-15T22:14:56.224Z,33.42
2017-12-15T22:17:24.366Z,39.70
2017-12-15T22:19:52.537Z,34.67
2017-12-15T22:22:20.683Z,36.88
2017-12-15T22:24:48.838Z,40.30
2017-12-15T22:27:16.977Z,38.22
2017-12-15T22:29:45.143Z,41.03
2017-12-15T22:32:13.280Z,38.17
2017-12-15T22:34:41.439Z,41.63
2017-12-15T22:37:09.571Z,37.17
2017-12-15T22:39:37.726Z,37.22
2017-12-15T22:42:05.852Z,38.20
2017-12-15T22:44:34.013Z,50.20
2017-12-15T22:47:02.266Z,40.78
2017-12-15T22:49:30.455Z,44.05
2017-12-15T22:51:58.590Z,43.20
2017-12-15T22:54:26.744Z,48.45
2017-12-15T22:56:54.901Z,39.10
2017-12-15T22:59:23.046Z,43.17
2017-12-15T23:01:51.228Z,45.33
2017-12-15T23:04:19.356Z,43.30
2017-12-15T23:06:47.508Z,43.70
2017-12-15T23:09:15.637Z,43.15
2017-12-15T23:11:43.803Z,41.30
2017-12-15T23:14:11.938Z,35.90
2017-12-15T23:16:40.094Z,38.20
2017-12-15T23:19:08.246Z,28.15
2017-12-15T23:21:36.403Z,32.28
2017-12-15T23:24:04.536Z,34.25
2017-12-15T23:26:32.685Z,34.65
2017-12-15T23:29:00.818Z,40.10
2017-12-15T23:31:28.973Z,32.90
2017-12-15T23:33:57.110Z,35.25
2017-12-15T23:36:25.288Z,34.70
2017-12-15T23:38:53.422Z,35.65
2017-12-15T23:41:21.569Z,28.25
2017-12-15T23:43:49.705Z,28.52
2017-12-15T23:46:17.870Z,31.60
2017-12-15T23:48:46.007Z,39.53
2017-12-15T23:51:14.141Z,30.70
2017-12-15T23:53:42.305Z,31.10
2017-12-15T23:56:22.257Z,25.20
2017-12-15T23:58:50.400Z,24.77
